createdAt,value
2018-04-13T00:00:57.992Z,90.13
2018-04-13T00:03:25.462Z,82.50
2018-04-13T00:05:52.924Z,91.27
2018-04-13T00:08:20.418Z,91.37
2018-04-13T00:10:47.887Z,91.40
2018-04-13T00:13:15.350Z,91.83
2018-04-13T00:15:42.822Z,96.33
2018-04-13T00:18:10.286Z,85.70
2018-04-13T00:20:37.747Z,90.73
2018-04-13T00:23:05.196Z,89.47
2018-04-13T00:25:32.695Z,87.93
2018-04-13T00:28:00.156Z,101.80
2018-04-13T00:30:27.616Z,82.70
2018-04-13T00:32:55.072Z,98.60
2018-04-13T00:35:22.524Z,89.00
2018-04-13T00:37:50.829Z,90.57
2018-04-13T00:40:19.066Z,120.40
2018-04-13T00:42:46.516Z,121.53
2018-04-13T00:45:13.992Z,99.87
2018-04-13T00:47:41.460Z,73.53
2018-04-13T00:50:08.997Z,85.30
2018-04-13T00:52:36.520Z,82.60
2018-04-13T00:55:03.983Z,85.23
2018-04-13T00:57:31.445Z,99.00
2018-04-13T00:59:58.914Z,104.13
2018-04-13T01:02:26.377Z,111.10
2018-04-13T01:04:53.851Z,104.45
2018-04-13T01:07:21.303Z,133.35
2018-04-13T01:09:48.782Z,136.60
2018-04-13T01:12:16.258Z,128.55
2018-04-13T01:14:43.723Z,134.80
2018-04-13T01:17:11.206Z,122.00
2018-04-13T01:19:38.655Z,133.00
2018-04-13T01:22:06.107Z,107.20
2018-04-13T01:24:33.576Z,114.18
2018-04-13T01:27:01.035Z,127.28
2018-04-13T01:29:28.510Z,110.63
2018-04-13T01:31:56.006Z,103.95
2018-04-13T01:34:23.488Z,110.57
2018-04-13T01:36:50.950Z,106.18
2018-04-13T01:39:18.458Z,92.32
2018-04-13T01:41:46.038Z,91.43
2018-04-13T01:44:13.500Z,101.97
2018-04-13T01:46:40.966Z,94.27
2018-04-13T01:49:08.441Z,99.37
2018-04-13T01:51:35.901Z,98.40
2018-04-13T01:54:03.439Z,105.72
2018-04-13T01:56:30.906Z,110.57
2018-04-13T01:58:58.406Z,93.25
2018-04-13T02:01:25.878Z,105.70
2018-04-13T02:03:54.091Z,125.53
2018-04-13T02:06:22.315Z,95.53
2018-04-13T02:08:49.775Z,97.57
2018-04-13T02:11:17.296Z,103.10
2018-04-13T02:13:44.774Z,89.90
2018-04-13T02:16:12.236Z,90.55
2018-04-13T02:18:39.784Z,84.22
2018-04-13T02:21:07.262Z,118.75
2018-04-13T02:23:34.815Z,115.03
2018-04-13T02:26:02.304Z,124.32
2018-04-13T02:28:29.899Z,132.12
2018-04-13T02:30:57.535Z,110.75
2018-04-13T02:33:25.027Z,120.68
2018-04-13T02:35:52.490Z,116.93
2018-04-13T02:38:19.936Z,93.73
2018-04-13T02:40:47.387Z,90.80
2018-04-13T02:43:14.881Z,93.30
2018-04-13T02:45:42.354Z,80.93
2018-04-13T02:48:09.833Z,86.90
2018-04-13T02:50:37.304Z,77.30
2018-04-13T02:53:04.769Z,71.40
2018-04-13T02:55:32.228Z,70.43
2018-04-13T02:57:59.698Z,57.47
2018-04-13T03:00:27.174Z,71.40
2018-04-13T03:02:54.628Z,72.47
2018-04-13T03:05:22.103Z,94.05
2018-04-13T03:07:49.578Z,106.93
2018-04-13T03:10:17.028Z,101.93
2018-04-13T03:12:44.515Z,81.60
2018-04-13T03:15:11.984Z,87.95
2018-04-13T03:17:39.448Z,107.82
2018-04-13T03:20:06.942Z,92.50
2018-04-13T03:22:34.400Z,96.90
2018-04-13T03:25:01.882Z,109.95
2018-04-13T03:27:29.344Z,90.15
2018-04-13T03:29:56.818Z,89.40
2018-04-13T03:32:24.386Z,90.10
2018-04-13T03:34:51.835Z,91.20
2018-04-13T03:37:19.318Z,90.60
2018-04-13T03:39:46.780Z,93.65
2018-04-13T03:42:14.245Z,75.20
2018-04-13T03:44:41.706Z,99.28
2018-04-13T03:47:09.199Z,96.68
2018-04-13T03:49:36.652Z,79.28
2018-04-13T03:52:04.130Z,82.07
2018-04-13T03:54:31.623Z,80.90
2018-04-13T03:56:59.064Z,85.20
2018-04-13T03:59:26.525Z,77.07
2018-04-13T04:01:54.003Z,89.25
2018-04-13T04:04:21.467Z,84.15
2018-04-13T04:06:48.933Z,89.97
2018-04-13T04:09:16.404Z,86.57
2018-04-13T04:11:43.914Z,104.65
2018-04-13T04:14:11.364Z,87.10
2018-04-13T04:16:38.951Z,81.80
2018-04-13T04:19:06.514Z,88.30
2018-04-13T04:21:45.892Z,91.40
2018-04-13T04:24:26.278Z,94.60
2018-04-13T04:26:53.728Z,80.90
2018-04-13T04:29:21.985Z,81.53
2018-04-13T04:31:49.453Z,79.13
2018-04-13T04:34:17.840Z,86.78
2018-04-13T04:36:45.325Z,87.05
2018-04-13T04:39:12.780Z,117.85
2018-04-13T04:41:40.352Z,81.80
2018-04-13T04:44:07.801Z,86.68
2018-04-13T04:46:35.295Z,91.80
2018-04-13T04:49:02.756Z,75.03
2018-04-13T04:51:30.232Z,79.87
2018-04-13T04:53:57.713Z,75.10
2018-04-13T04:56:25.540Z,74.60
2018-04-13T04:58:53.761Z,66.80
2018-04-13T05:01:21.250Z,56.70
2018-04-13T05:03:48.719Z,53.40
2018-04-13T05:06:16.168Z,52.22
2018-04-13T05:08:43.629Z,49.10
2018-04-13T05:11:11.092Z,53.78
2018-04-13T05:13:38.630Z,49.40
2018-04-13T05:16:06.063Z,51.20
2018-04-13T05:18:33.550Z,50.28
2018-04-13T05:21:01.093Z,64.87
2018-04-13T05:23:28.549Z,66.60
2018-04-13T05:25:56.005Z,63.63
2018-04-13T05:28:23.478Z,69.10
2018-04-13T05:30:50.948Z,62.95
2018-04-13T05:33:18.403Z,76.25
2018-04-13T05:35:46.632Z,71.20
2018-04-13T05:38:14.087Z,74.00
2018-04-13T05:40:41.577Z,80.15
2018-04-13T05:43:09.041Z,73.53
2018-04-13T05:45:36.514Z,69.55
2018-04-13T05:48:03.960Z,76.22
2018-04-13T05:50:31.432Z,72.10
2018-04-13T05:52:58.914Z,69.25
2018-04-13T05:55:26.396Z,83.95
2018-04-13T05:57:53.877Z,83.40
2018-04-13T06:00:21.332Z,83.30
2018-04-13T06:02:48.809Z,106.47
2018-04-13T06:05:16.270Z,129.10
2018-04-13T06:07:43.762Z,99.60
2018-04-13T06:10:11.331Z,97.10
2018-04-13T06:12:38.784Z,109.95
2018-04-13T06:15:06.232Z,97.73
2018-04-13T06:17:33.689Z,100.00
2018-04-13T06:20:01.199Z,89.68
2018-04-13T06:22:28.667Z,88.30
2018-04-13T06:24:56.115Z,92.90
2018-04-13T06:27:23.611Z,86.20
2018-04-13T06:29:51.063Z,98.75
2018-04-13T06:32:18.515Z,88.20
2018-04-13T06:34:46.023Z,87.05
2018-04-13T06:37:13.572Z,82.90
2018-04-13T06:39:41.028Z,81.87
2018-04-13T06:42:08.526Z,86.75
2018-04-13T06:44:36.122Z,90.93
2018-04-13T06:47:03.678Z,98.57
2018-04-13T06:49:31.227Z,91.57
2018-04-13T06:51:58.710Z,88.10
2018-04-13T06:54:26.183Z,80.55
2018-04-13T06:56:53.639Z,86.75
2018-04-13T06:59:21.126Z,81.22
2018-04-13T07:01:48.580Z,83.80
2018-04-13T07:04:16.051Z,93.80
2018-04-13T07:06:43.499Z,91.07
2018-04-13T07:09:10.951Z,93.22
2018-04-13T07:11:38.430Z,97.60
2018-04-13T07:14:05.883Z,93.40
2018-04-13T07:16:33.332Z,93.90
2018-04-13T07:19:01.564Z,87.50
2018-04-13T07:21:29.047Z,84.05
2018-04-13T07:23:56.514Z,84.47
2018-04-13T07:26:24.737Z,87.35
2018-04-13T07:28:52.200Z,87.85
2018-04-13T07:31:19.659Z,83.53
2018-04-13T07:33:47.122Z,89.30
2018-04-13T07:36:14.648Z,87.95
2018-04-13T07:38:42.871Z,87.97
2018-04-13T07:41:10.345Z,82.43
2018-04-13T07:43:37.812Z,83.45
2018-04-13T07:46:05.302Z,81.85
2018-04-13T07:48:33.516Z,82.43
2018-04-13T07:51:01.751Z,82.33
2018-04-13T07:53:29.235Z,73.57
2018-04-13T07:55:56.796Z,76.93
2018-04-13T07:58:24.251Z,71.35
2018-04-13T08:00:51.727Z,72.87
2018-04-13T08:03:19.229Z,74.20
2018-04-13T08:05:46.703Z,68.12
2018-04-13T08:08:14.170Z,67.97
2018-04-13T08:10:41.639Z,70.17
2018-04-13T08:13:09.088Z,69.15
2018-04-13T08:15:36.543Z,65.05
2018-04-13T08:18:04.040Z,69.53
2018-04-13T08:20:31.459Z,62.00
2018-04-13T08:22:58.922Z,64.03
2018-04-13T08:25:26.398Z,66.70
2018-04-13T08:27:53.844Z,63.55
2018-04-13T08:30:22.058Z,61.50
2018-04-13T08:32:49.553Z,63.83
2018-04-13T08:35:17.005Z,64.55
2018-04-13T08:37:44.471Z,63.20
2018-04-13T08:40:11.946Z,59.45
2018-04-13T08:42:39.425Z,58.10
2018-04-13T08:45:06.887Z,63.20
2018-04-13T08:47:34.351Z,61.25
2018-04-13T08:50:01.830Z,58.42
2018-04-13T08:52:29.290Z,63.03
2018-04-13T08:54:56.782Z,64.85
2018-04-13T08:57:24.219Z,61.10
2018-04-13T08:59:51.728Z,59.22
2018-04-13T09:02:19.188Z,54.88
2018-04-13T09:04:46.663Z,58.42
2018-04-13T09:07:14.140Z,53.87
2018-04-13T09:09:41.715Z,52.35
2018-04-13T09:12:09.180Z,51.55
2018-04-13T09:14:39.600Z,54.65
2018-04-13T09:17:07.073Z,47.97
2018-04-13T09:19:34.527Z,49.65
2018-04-13T09:22:02.010Z,47.72
2018-04-13T09:24:29.464Z,44.33
2018-04-13T09:26:57.181Z,43.72
2018-04-13T09:29:25.137Z,40.75
2018-04-13T09:31:52.583Z,40.42
2018-04-13T09:34:20.041Z,40.05
2018-04-13T09:36:47.515Z,39.45
2018-04-13T09:39:14.977Z,39.80
2018-04-13T09:41:43.223Z,33.25
2018-04-13T09:44:10.681Z,35.75
2018-04-13T09:46:38.151Z,34.15
2018-04-13T09:49:05.612Z,35.50
2018-04-13T09:51:33.068Z,33.45
2018-04-13T09:54:00.535Z,36.58
2018-04-13T09:56:27.997Z,31.30
2018-04-13T09:58:55.439Z,33.30
2018-04-13T10:01:23.679Z,30.00
2018-04-13T10:03:56.803Z,29.70
2018-04-13T10:06:24.366Z,30.43
2018-04-13T10:08:51.830Z,25.88
2018-04-13T10:11:19.304Z,27.80
2018-04-13T10:13:46.771Z,24.37
2018-04-13T10:16:14.236Z,24.45
2018-04-13T10:18:41.716Z,23.92
2018-04-13T10:21:09.201Z,25.40
2018-04-13T10:23:37.455Z,21.90
2018-04-13T10:26:04.930Z,24.33
2018-04-13T10:28:32.396Z,23.75
2018-04-13T10:30:59.890Z,22.90
2018-04-13T10:33:27.435Z,25.15
2018-04-13T10:35:54.892Z,22.58
2018-04-13T10:38:22.375Z,22.73
2018-04-13T10:40:49.851Z,22.17
2018-04-13T10:43:17.299Z,20.60
2018-04-13T10:45:44.814Z,20.70
2018-04-13T10:48:12.345Z,18.40
2018-04-13T10:50:39.813Z,19.98
2018-04-13T10:53:07.278Z,18.37
2018-04-13T10:55:34.747Z,17.70
2018-04-13T10:58:02.228Z,18.10
2018-04-13T11:00:29.694Z,15.75
2018-04-13T11:02:57.141Z,15.73
2018-04-13T11:05:24.604Z,15.10
2018-04-13T11:07:52.123Z,16.27
2018-04-13T11:10:19.610Z,15.65
2018-04-13T11:12:47.060Z,15.30
2018-04-13T11:15:14.524Z,14.73
2018-04-13T11:17:41.985Z,15.90
2018-04-13T11:20:09.464Z,17.23
2018-04-13T11:22:36.926Z,15.80
2018-04-13T11:25:04.399Z,16.15
2018-04-13T11:27:31.856Z,16.58
2018-04-13T11:29:59.303Z,20.85
2018-04-13T11:32:26.763Z,17.65
2018-04-13T11:34:54.995Z,19.67
2018-04-13T11:37:22.482Z,17.70
2018-04-13T11:39:49.944Z,17.65
2018-04-13T11:42:17.411Z,17.45
2018-04-13T11:44:44.863Z,17.33
2018-04-13T11:47:12.354Z,17.80
2018-04-13T11:49:39.904Z,17.08
2018-04-13T11:52:07.401Z,17.90
2018-04-13T11:54:34.896Z,14.52
2018-04-13T11:57:03.119Z,15.40
2018-04-13T11:59:30.606Z,15.00
2018-04-13T12:01:58.078Z,14.30
2018-04-13T12:04:25.615Z,16.05
2018-04-13T12:06:53.005Z,15.55
2018-04-13T12:09:20.466Z,17.45
2018-04-13T12:11:47.928Z,19.17
2018-04-13T12:14:15.380Z,20.70
2018-04-13T12:16:43.605Z,20.10
2018-04-13T12:19:11.070Z,22.70
2018-04-13T12:21:38.550Z,24.00
2018-04-13T12:24:06.009Z,24.60
2018-04-13T12:26:33.477Z,24.87
2018-04-13T12:29:00.928Z,26.90
2018-04-13T12:31:28.406Z,25.17
2018-04-13T12:33:55.885Z,23.97
2018-04-13T12:36:23.336Z,25.83
2018-04-13T12:38:50.794Z,26.42
2018-04-13T12:41:19.026Z,24.25
2018-04-13T12:43:46.510Z,25.23
2018-04-13T12:46:13.959Z,25.75
2018-04-13T12:48:41.408Z,26.23
2018-04-13T12:51:08.882Z,26.37
2018-04-13T12:53:36.378Z,25.67
2018-04-13T12:56:03.832Z,29.33
2018-04-13T12:58:32.008Z,28.53
2018-04-13T13:00:59.483Z,28.65
2018-04-13T13:03:26.949Z,27.20
2018-04-13T13:05:54.400Z,30.05
2018-04-13T13:08:21.856Z,30.27
2018-04-13T13:10:50.083Z,27.52
2018-04-13T13:13:17.550Z,29.58
2018-04-13T13:15:45.007Z,30.25
2018-04-13T13:18:12.456Z,31.50
2018-04-13T13:20:40.685Z,35.47
2018-04-13T13:23:08.171Z,35.20
2018-04-13T13:25:35.624Z,31.10
2018-04-13T13:28:03.091Z,32.53
2018-04-13T13:30:30.563Z,33.63
2018-04-13T13:32:58.030Z,32.60
2018-04-13T13:35:25.479Z,30.95
2018-04-13T13:37:52.937Z,32.20
2018-04-13T13:40:20.415Z,33.80
2018-04-13T13:42:47.884Z,32.00
2018-04-13T13:45:15.351Z,35.42
2018-04-13T13:47:43.125Z,31.52
2018-04-13T13:50:11.356Z,36.72
2018-04-13T13:52:38.804Z,30.25
2018-04-13T13:55:06.295Z,31.42
2018-04-13T13:57:33.725Z,33.30
2018-04-13T14:00:01.206Z,32.47
2018-04-13T14:02:28.849Z,36.63
2018-04-13T14:04:57.098Z,32.63
2018-04-13T14:07:24.569Z,34.50
2018-04-13T14:09:52.139Z,34.00
2018-04-13T14:12:19.584Z,36.25
2018-04-13T14:14:47.091Z,36.47
2018-04-13T14:17:14.542Z,32.03
2018-04-13T14:19:42.002Z,31.25
2018-04-13T14:22:09.472Z,36.80
2018-04-13T14:24:36.912Z,35.20
2018-04-13T14:27:04.387Z,35.75
2018-04-13T14:29:31.850Z,37.00
2018-04-13T14:31:59.328Z,36.78
2018-04-13T14:34:26.776Z,34.20
2018-04-13T14:36:55.017Z,38.13
2018-04-13T14:39:22.486Z,40.83
2018-04-13T14:41:49.964Z,37.72
2018-04-13T14:44:17.429Z,41.60
2018-04-13T14:46:44.904Z,38.83
2018-04-13T14:49:12.365Z,39.90
2018-04-13T14:51:39.833Z,41.22
2018-04-13T14:54:07.279Z,39.35
2018-04-13T14:56:34.779Z,43.10
2018-04-13T14:59:02.230Z,40.03
2018-04-13T15:01:29.697Z,43.33
2018-04-13T15:03:57.180Z,40.80
2018-04-13T15:06:24.683Z,38.47
2018-04-13T15:08:52.133Z,39.73
2018-04-13T15:11:19.603Z,42.33
2018-04-13T15:13:47.074Z,40.55
2018-04-13T15:16:14.533Z,41.60
2018-04-13T15:18:42.002Z,45.00
2018-04-13T15:21:09.476Z,39.15
2018-04-13T15:23:36.963Z,38.42
2018-04-13T15:26:04.410Z,44.55
2018-04-13T15:28:31.860Z,41.63
2018-04-13T15:30:59.347Z,42.30
2018-04-13T15:33:26.804Z,41.40
2018-04-13T15:35:54.256Z,42.17
2018-04-13T15:38:21.720Z,41.25
2018-04-13T15:40:49.213Z,35.13
2018-04-13T15:43:16.707Z,38.60
2018-04-13T15:45:44.151Z,36.93
2018-04-13T15:48:11.622Z,37.25
2018-04-13T15:50:39.094Z,38.60
2018-04-13T15:53:06.558Z,36.88
2018-04-13T15:55:34.013Z,33.00
2018-04-13T15:58:01.483Z,37.97
2018-04-13T16:00:28.953Z,37.15
2018-04-13T16:02:56.432Z,36.10
2018-04-13T16:05:23.905Z,35.17
2018-04-13T16:07:51.367Z,30.70
2018-04-13T16:10:18.824Z,31.50
2018-04-13T16:12:46.303Z,29.92
2018-04-13T16:15:13.774Z,33.55
2018-04-13T16:17:41.242Z,30.75
2018-04-13T16:20:08.696Z,29.25
2018-04-13T16:22:36.281Z,31.50
2018-04-13T16:25:03.739Z,28.40
2018-04-13T16:27:31.196Z,27.87
2018-04-13T16:29:58.654Z,29.08
2018-04-13T16:32:26.875Z,30.85
2018-04-13T16:34:54.338Z,30.12
2018-04-13T16:37:21.787Z,28.75
2018-04-13T16:39:50.148Z,33.35
2018-04-13T16:42:17.611Z,28.75
2018-04-13T16:44:45.080Z,33.67
2018-04-13T16:47:12.545Z,32.67
2018-04-13T16:49:40.000Z,32.75
2018-04-13T16:52:07.494Z,32.17
2018-04-13T16:54:34.952Z,33.15
2018-04-13T16:57:02.416Z,34.90
2018-04-13T16:59:29.905Z,32.95
2018-04-13T17:01:57.355Z,31.92
2018-04-13T17:04:25.619Z,32.53
2018-04-13T17:06:53.061Z,38.97
2018-04-13T17:09:21.298Z,35.70
2018-04-13T17:11:48.781Z,35.05
2018-04-13T17:14:16.294Z,36.65
2018-04-13T17:16:43.711Z,31.83
2018-04-13T17:19:11.182Z,34.63
2018-04-13T17:21:38.645Z,33.42
2018-04-13T17:24:06.122Z,32.65
2018-04-13T17:26:33.595Z,35.40
2018-04-13T17:29:01.052Z,38.65
2018-04-13T17:31:28.535Z,34.63
2018-04-13T17:33:56.010Z,37.35
2018-04-13T17:36:23.478Z,37.20
2018-04-13T17:38:50.937Z,36.88
2018-04-13T17:41:18.393Z,34.85
2018-04-13T17:43:45.855Z,35.22
2018-04-13T17:46:13.303Z,38.57
2018-04-13T17:48:40.783Z,35.50
2018-04-13T17:51:08.253Z,38.33
2018-04-13T17:53:35.734Z,35.80
2018-04-13T17:56:03.206Z,34.53
2018-04-13T17:58:30.668Z,36.95
2018-04-13T18:00:58.112Z,36.28
2018-04-13T18:03:25.593Z,35.38
2018-04-13T18:05:53.068Z,36.13
2018-04-13T18:08:20.535Z,37.17
2018-04-13T18:10:48.047Z,37.92
2018-04-13T18:13:15.511Z,36.95
2018-04-13T18:15:42.972Z,37.20
2018-04-13T18:18:10.504Z,38.40
2018-04-13T18:20:38.728Z,39.10
2018-04-13T18:23:06.190Z,38.97
2018-04-13T18:25:33.683Z,39.45
2018-04-13T18:28:01.146Z,40.77
2018-04-13T18:30:28.614Z,44.60
2018-04-13T18:32:56.079Z,41.40
2018-04-13T18:35:23.531Z,47.53
2018-04-13T18:37:51.017Z,45.03
2018-04-13T18:40:18.476Z,49.00
2018-04-13T18:42:46.031Z,47.50
2018-04-13T18:45:13.482Z,49.10
2018-04-13T18:47:41.713Z,50.72
2018-04-13T18:50:09.179Z,51.72
2018-04-13T18:52:36.644Z,57.25
2018-04-13T18:55:04.123Z,52.50
2018-04-13T18:57:31.592Z,52.17
2018-04-13T18:59:59.055Z,53.67
2018-04-13T19:02:26.540Z,55.55
2018-04-13T19:04:54.013Z,56.72
2018-04-13T19:07:21.496Z,55.78
2018-04-13T19:09:48.974Z,58.13
2018-04-13T19:12:17.208Z,56.85
2018-04-13T19:14:44.764Z,57.25
2018-04-13T19:17:12.198Z,56.25
2018-04-13T19:19:39.679Z,57.97
2018-04-13T19:22:07.234Z,60.33
2018-04-13T19:24:34.687Z,57.25
2018-04-13T19:27:02.171Z,54.95
2018-04-13T19:29:29.647Z,55.60
2018-04-13T19:31:57.151Z,59.10
2018-04-13T19:34:25.395Z,56.03
2018-04-13T19:36:52.878Z,61.28
2018-04-13T19:39:20.355Z,57.38
2018-04-13T19:41:47.804Z,56.60
2018-04-13T19:44:15.276Z,56.67
2018-04-13T19:46:42.742Z,58.22
2018-04-13T19:49:10.244Z,55.45
2018-04-13T19:51:37.710Z,57.83
2018-04-13T19:54:05.186Z,57.90
2018-04-13T19:56:32.640Z,54.97
2018-04-13T19:59:00.126Z,59.08
2018-04-13T20:01:27.635Z,58.80
2018-04-13T20:03:55.895Z,57.80
2018-04-13T20:06:24.864Z,59.28
2018-04-13T20:08:52.343Z,59.00
2018-04-13T20:11:19.895Z,57.33
2018-04-13T20:13:48.234Z,58.45
2018-04-13T20:16:21.722Z,56.90
2018-04-13T20:18:49.184Z,56.47
2018-04-13T20:21:16.636Z,59.63
2018-04-13T20:23:44.110Z,58.30
2018-04-13T20:26:11.675Z,58.97
2018-04-13T20:28:39.895Z,58.15
2018-04-13T20:31:07.363Z,60.88
2018-04-13T20:33:34.835Z,61.10
2018-04-13T20:36:02.321Z,58.85
2018-04-13T20:38:29.954Z,62.25
2018-04-13T20:40:57.371Z,60.03
2018-04-13T20:43:24.836Z,56.75
2018-04-13T20:45:52.325Z,61.83
2018-04-13T20:48:19.808Z,61.10
2018-04-13T20:50:48.066Z,58.97
2018-04-13T20:53:15.631Z,67.00
2018-04-13T20:55:43.106Z,65.90
2018-04-13T20:58:10.621Z,64.72
2018-04-13T21:00:38.858Z,64.95
2018-04-13T21:03:06.307Z,64.78
2018-04-13T21:05:33.784Z,65.05
2018-04-13T21:08:01.278Z,64.62
2018-04-13T21:10:28.836Z,70.35
2018-04-13T21:12:56.400Z,68.37
2018-04-13T21:15:23.882Z,66.57
2018-04-13T21:17:51.432Z,69.05
2018-04-13T21:20:18.906Z,73.45
2018-04-13T21:22:46.388Z,75.32
2018-04-13T21:25:13.959Z,71.15
2018-04-13T21:27:41.427Z,78.27
2018-04-13T21:30:08.896Z,71.35
2018-04-13T21:32:36.375Z,81.15
2018-04-13T21:35:03.851Z,86.55
2018-04-13T21:37:31.322Z,80.95
2018-04-13T21:39:58.887Z,79.20
2018-04-13T21:42:26.441Z,89.13
2018-04-13T21:44:53.907Z,88.87
2018-04-13T21:47:21.361Z,86.37
2018-04-13T21:49:48.817Z,89.72
2018-04-13T21:52:16.346Z,88.95
2018-04-13T21:54:43.800Z,89.70
2018-04-13T21:57:11.255Z,91.90
2018-04-13T21:59:38.750Z,98.28
2018-04-13T22:02:06.207Z,91.97
2018-04-13T22:04:33.769Z,90.97
2018-04-13T22:07:01.269Z,91.95
2018-04-13T22:09:28.738Z,84.97
2018-04-13T22:11:56.289Z,85.50
2018-04-13T22:14:35.647Z,83.55
2018-04-13T22:17:03.096Z,89.13
2018-04-13T22:19:30.581Z,87.78
2018-04-13T22:21:58.043Z,89.85
2018-04-13T22:24:25.511Z,92.90
2018-04-13T22:26:52.995Z,94.87
2018-04-13T22:29:20.445Z,91.03
2018-04-13T22:31:47.908Z,89.28
2018-04-13T22:34:15.376Z,87.72
2018-04-13T22:36:42.844Z,96.00
2018-04-13T22:39:10.309Z,95.75
2018-04-13T22:41:37.793Z,92.37
2018-04-13T22:44:05.268Z,100.68
2018-04-13T22:46:32.732Z,96.87
2018-04-13T22:49:00.203Z,91.43
2018-04-13T22:51:27.687Z,99.85
2018-04-13T22:53:55.154Z,95.38
2018-04-13T22:56:22.631Z,92.03
2018-04-13T22:58:50.195Z,96.55
2018-04-13T23:01:17.667Z,92.85
2018-04-13T23:03:45.251Z,93.60
2018-04-13T23:06:12.722Z,95.30
2018-04-13T23:08:40.264Z,96.55
2018-04-13T23:11:07.836Z,100.28
2018-04-13T23:13:35.307Z,99.13
2018-04-13T23:16:02.789Z,102.95
2018-04-13T23:18:30.252Z,101.00
2018-04-13T23:20:57.738Z,101.22
2018-04-13T23:23:25.192Z,99.77
2018-04-13T23:25:52.648Z,102.10
2018-04-13T23:28:20.116Z,106.53
2018-04-13T23:30:47.600Z,102.07
2018-04-13T23:33:15.061Z,101.82
2018-04-13T23:35:42.551Z,100.85
2018-04-13T23:38:10.019Z,105.53
2018-04-13T23:40:37.509Z,104.28
2018-04-13T23:43:04.968Z,103.87
2018-04-13T23:45:32.526Z,101.10
2018-04-13T23:48:00.100Z,102.85
2018-04-13T23:50:27.571Z,106.65
2018-04-13T23:52:55.043Z,97.30
2018-04-13T23:55:22.495Z,97.35
2018-04-13T23:57:49.956Z,109.50
